KVLD/VLD METAR and TAF weather

Enter ICAO airport designator
Station Type Date Time Source
KVLD METAR 2019/05/19 20:53 UTC NOAA

KVLD 192053Z VRB03KT 10SM CLR 32/08 A2999 RMK AO2 SLP161 T03220083 56017


Station Type Date Time Source
KVLD Decoded METAR 2019/05/19 20:53 UTC NOAA

VALDOSTA REGIONAL AIRPORT, GA, United States (KVLD) 30-47N 083-16W
May 19, 2019 - 04:53 PM EDT / 2019.05.19 2053 UTC
Wind: Variable at 3 MPH (3 KT):0
Visibility: 10 mile(s):0
Sky conditions: clear
Temperature: 90.0 F (32.2 C)
Dew Point: 46.9 F (8.3 C)
Relative Humidity: 22%
Pressure (altimeter): 29.99 in. Hg (1015 hPa)
Pressure tendency: 0.05 inches (1.7 hPa) lower than three hours ago
ob: KVLD 192053Z VRB03KT 10SM CLR 32/08 A2999 RMK AO2 SLP161 T03220083 56017
cycle: 21

Station Type Date Time Source
KVLD TAF 2019/05/19 18:22 UTC NOAA

TAF KVLD 191720Z 1918/2018 16006KT P6SM SCT060

Example: see airport list